Terminal Aerodrome Forecast
Issued by NWS Wilmington, OH

Current Version | Previous Version | Text Only | Print | Product List | Glossary Off
Versions: 1 2 3 4 5 6 7 8 9 10 11 12 13 14 15 16 17 18 19 20 21 22 23 24

990
FTUS41 KILN 220539
TAFCVG
TAF
KCVG 220539Z 2206/2312 16003KT P6SM BKN110
     FM221300 08006KT P6SM OVC080
     FM222000 06010KT P6SM VCSH OVC080
     FM230000 03010KT 5SM -SHRA BR OVC015
     FM231000 36010KT 5SM -SHRA BR OVC007=

USA.gov is the U.S. government's official web portal to all federal, state and local government web resources and services.